Flight Track Log - Related Links

Times and Time Zones

All times are in EST time to prevent confusion due to time zone crossing. See the UPS2506 flight status page for this flight to view local times or setup timezone preferences in your user account.

Time Position Orientation Groundspeed Altitude Reporting Facility
EST Latitude Longitude Course Direction KTS MPH feet Rate Location/Type
Thu 09:28:09 PM 47.5114 -122.2860 148° Southeast 176 203 1,200  Level FlightAware ADS-B
Thu 09:28:21 PM 47.5033 -122.2790 150° Southeast 186 214 1,400 1,778 Climbing FlightAware ADS-B
Thu 09:28:36 PM 47.4917 -122.2680 147° Southeast 204 235 2,000 3,000 Climbing FlightAware ADS-B
Thu 09:28:51 PM 47.4790 -122.2560 147° Southeast 212 244 2,900 3,290 Climbing FlightAware ADS-B
Thu 09:29:07 PM 47.4655 -122.2450 151° Southeast 228 262 3,700 3,250 Climbing FlightAware ADS-B
Thu 09:29:15 PM 47.4576 -122.2380 149° Southeast 237 273 4,200 3,500 Climbing FlightAware ADS-B
Thu 09:29:19 PM 47.4537 -122.2350 153° Southeast 241 277 4,400 2,571 Climbing FlightAware ADS-B
Thu 09:29:22 PM 47.4502 -122.2330 159° South 246 283 4,500 2,571 Climbing FlightAware ADS-B
Thu 09:29:26 PM 47.4465 -122.2310 160° South 248 285 4,700 3,429 Climbing FlightAware ADS-B
Thu 09:29:29 PM 47.4428 -122.2300 170° South 250 288 4,900 3,750 Climbing FlightAware ADS-B
Thu 09:29:34 PM 47.4373 -122.2290 173° South 252 290 5,200 3,750 Climbing FlightAware ADS-B
Thu 09:29:45 PM 47.4241 -122.2280 177° South 257 296 5,900 3,789 Climbing FlightAware ADS-B
Thu 09:29:53 PM 47.4142 -122.2280 180° South 261 300 6,400 3,652 Climbing FlightAware ADS-B
Thu 09:30:08 PM 47.3957 -122.2300 184° South 266 306 7,300 3,600 Climbing FlightAware ADS-B
Thu 09:30:23 PM 47.3770 -122.2320 184° South 273 314 8,200 3,643 Climbing FlightAware ADS-B
Thu 09:30:36 PM 47.3607 -122.2350 187° South 278 320 9,000 3,643 Climbing FlightAware ADS-B
Thu 09:30:51 PM 47.3413 -122.2370 184° South 284 327 9,900 3,366 Climbing FlightAware ADS-B
Thu 09:31:17 PM 47.3074 -122.2430 187° South 297 342 11,300 2,893 Climbing FlightAware ADS-B
Thu 09:31:47 PM 47.2633 -122.2510 187° South 338 389 12,600 2,300 Climbing FlightAware ADS-B
Thu 09:32:17 PM 47.2121 -122.2610 188° South 387 445 13,600 1,900 Climbing FlightAware ADS-B
Thu 09:32:47 PM 47.1549 -122.2720 187° South 431 496 14,500 2,100 Climbing FlightAware ADS-B
Thu 09:33:17 PM 47.0936 -122.2830 187° South 458 527 15,700 2,754 Climbing FlightAware ADS-B
Thu 09:33:48 PM 47.0279 -122.2960 188° South 469 540 17,300 3,000 Climbing FlightAware ADS-B
Thu 09:34:19 PM 46.9603 -122.3060 186° South 486 559 18,800 2,526 Climbing FlightAware ADS-B
Thu 09:34:45 PM 46.9007 -122.3100 183° South 510 587 19,700 1,286 Climbing FlightAware ADS-B
Thu 09:35:15 PM 46.8277 -122.3100 180° South 527 606 20,000 300 Climbing FlightAware ADS-B
Thu 09:35:45 PM 46.7534 -122.3090 179° South 522 601 20,000  Level FlightAware ADS-B
Thu 09:36:16 PM 46.6808 -122.3090 180° South 517 595 20,000  Level FlightAware ADS-B
Thu 09:36:46 PM 46.6085 -122.3090 180° South 517 595 20,000 -300 Level FlightAware ADS-B
Thu 09:37:16 PM 46.5353 -122.3090 180° South 518 596 19,700 -1,900 Descending FlightAware ADS-B
Thu 09:37:46 PM 46.4635 -122.3090 180° South 509 586 18,100 -2,656 Descending FlightAware ADS-B
Thu 09:38:17 PM 46.3943 -122.3080 179° South 480 552 17,000 -2,361 Descending FlightAware ADS-B
Thu 09:38:47 PM 46.3285 -122.3080 180° South 461 531 15,700 -2,791 Descending FlightAware ADS-B
Thu 09:39:00 PM 46.3006 -122.3080 180° South 455 524 15,000 -3,200 Descending FlightAware ADS-B
Thu 09:39:17 PM 46.2652 -122.3130 186° South 448 516 14,100 -3,214 Descending FlightAware ADS-B
Thu 09:39:28 PM 46.2422 -122.3200 192° South 443 510 13,500 -3,120 Descending FlightAware ADS-B
Thu 09:39:42 PM 46.2160 -122.3320 198° South 434 499 12,800 -2,690 Descending FlightAware ADS-B
Thu 09:40:26 PM 46.1367 -122.3760 201° Southwest 408 470 10,900 -1,680 Descending FlightAware ADS-B
Thu 09:40:57 PM 46.0841 -122.4060 202° Southwest 387 445 10,700 -295 Descending FlightAware ADS-B
Thu 09:41:27 PM 46.0331 -122.4350 202° Southwest 384 442 10,600 -941 Descending FlightAware ADS-B
Thu 09:41:48 PM 45.9999 -122.4520 200° South 369 425 9,900 -1,297 Descending FlightAware ADS-B
Thu 09:42:04 PM 45.9758 -122.4640 199° South 345 397 9,800 -581 Descending FlightAware ADS-B
Thu 09:42:19 PM 45.9543 -122.4750 200° South 307 353 9,600 -1,820 Descending FlightAware ADS-B
Thu 09:43:33 PM 45.8778 -122.5592 200° South 282 325 7,100 -1,963 Descending Seattle Center
Thu 09:44:06 PM 45.8492 -122.5953 221° Southwest 254 292 6,100 -1,300 Descending Seattle Center
Thu 09:44:33 PM 45.8292 -122.6325 232° Southwest 256 295 5,800 -1,180 Descending Seattle Center
Thu 09:45:07 PM 45.8056 -122.6689 227° Southwest 231 266 4,900 -1,279 Descending Seattle Center
Thu 09:45:34 PM 45.7889 -122.7000 232° Southwest 225 259 4,500 -1,068 Descending Seattle Center
Thu 09:46:20 PM 45.7614 -122.7519 233° Southwest 206 237 3,600 -885 Descending Seattle Center
Thu 09:46:35 PM 45.7542 -122.7661 234° Southwest 210 242 3,600 -444 Level Seattle Center
Thu 09:47:14 PM 45.7194 -122.7908 206° Southwest 205 236 3,200 -689 Descending Seattle Center
Thu 09:47:36 PM 45.7019 -122.7947 189° South 203 234 2,900 -764 Descending Seattle Center
Thu 09:48:09 PM 45.6733 -122.7878 170° South 179 206 2,500 -295 Descending Seattle Center
Thu 09:48:37 PM 45.6553 -122.7736 151° Southeast 169 194 2,600 -358 Climbing Seattle Center
Thu 09:49:16 PM 45.6431 -122.7444 121° Southeast 136 157 2,100 -689 Descending Seattle Center
Thu 09:49:38 PM 45.6364 -122.7281 120° Southeast 136 157 1,900 -875 Descending Seattle Center
Thu 09:50:04 PM 45.6297 -122.7100 118° Southeast 119 137 1,400 -700 Descending Seattle Center
Thu 09:50:38 PM 45.6197 -122.6853 120° Southeast 125 144 1,200 -590 Descending Seattle Center
Thu 09:51:05 PM 45.6125 -122.6675 120° Southeast 120 138 800 -689 Descending Seattle Center
Thu 09:51:39 PM 45.6036 -122.6439 118° Southeast 120 138 500 -700 Descending Seattle Center
Thu 09:52:05 PM 45.5953 -122.6250 122° Southeast 116 133 100 -393 Descending Seattle Center
Thu 09:52:40 PM 45.5869 -122.6028 118° Southeast 117 135 100  Level Seattle Center

Login

Don't have an account? Register now (free) for customized features, flight alerts, and more!